Fay, OK (73646)

8:56 PM CST on February 11, 2016 (GMT -0600)
East Hughes and 5th Street | | Change Station
CLOSE
Current Station
Personal Weather Station
Location: Thomas, OK
Elevation: 1788 ft
Nearby Weather Stations

Elev 1788 ft 35.75 °N, 98.74 °W | Updated 4 seconds ago

Partly Cloudy
Partly Cloudy
45.7 °F
Feels Like 46 °F
N
0.0
Wind Variable Wind from South
Gusts 0.0 mph

Today
High -- | Low -- °F
--% Chance of Precip.
Yesterday
High -- | Low -- °F
Precip. -- in
Pressure 30.18 in
Visibility 10.0 miles
Clouds Clear
Windchill 46 °F
Dew Point 36 °F
Humidity 68%
Rainfall 0.00 in
Snow Depth Not available.
7:26 AM 6:11 PM
Waxing Crescent, 16% visible
METAR KOJA 120235Z AUTO 00000KT 10SM CLR 06/01 A3018 RMK AO2
Pressure 30.18 in
Visibility 10.0 miles
Clouds Clear
Windchill 46 °F
Dew Point 36 °F
Humidity 68%
Rainfall 0.00 in
Snow Depth Not available.
7:26 AM 6:11 PM
Waxing Crescent, 16% visible
METAR KOJA 120235Z AUTO 00000KT 10SM CLR 06/01 A3018 RMK AO2

10-Day Weather Forecast

Almanac

Astronomy

Feb. 11, 2016 Rise Set
Actual Time
Civil Twilight
Nautical Twilight
Astronomical Twilight
Moon
Length of Visible Light
Length of Day
Tomorrow will be .
, % of the Moon is Illuminated

Today's Extremes

State Highs State Lows

Community

WunderPhotos

Upload Photos

1,892,226 photos uploaded!

WunderBlog® & News

Nearby

Air Quality

  Air Quality AQ Index Pollutant
Not available.

Snow Depth

Station Depth Elevation

Earthquake Activity

City Distance Mag. Time & Date
Minimum magnitude displayed is 2.5.

Coastal Water Temperatures

Place Temperature

Stations

Nearby Weather Stations

Station Location Temp. Windchill Dew Point Humidity Wind Precip. Elev Updated Type
                   

Watches & Warnings

There are currently no watches in effect.